• Join FlightAware (Why Join?)
  • Login
  • US Flag 
01:32AM EDT


 

Airport Tracker/Info


-or-


 

Live Flight TrackerFlight Track Log ✈ CES5388 ✈ 10-Nov-2013 ✈ ZGKL / KWL - ZSOF / HFE

Flight Track Log - Related Links

Times and Time Zones

All times are in EST time to prevent confusion due to time zone crossing. See the CES5388 flight status page for this flight to view local times or setup timezone preferences in your user account.

Time Position Orientation Groundspeed Altitude Reporting Facility
EST Latitude Longitude Course Direction KTS MPH feet Rate Location/Type
10:32AM 26.2708 111.1193 43° Northeast  Level Estimated
10:33AM 26.3514 111.2032 43° Northeast  Level Estimated
10:34AM 26.4320 111.2872 43° Northeast  Level Estimated
10:35AM 26.5126 111.3713 43° Northeast  Level Estimated
10:36AM 26.5931 111.4556 43° Northeast  Level Estimated
10:37AM 26.6735 111.5399 43° Northeast  Level Estimated
10:38AM 26.7539 111.6244 43° Northeast  Level Estimated
10:39AM 26.8343 111.7090 43° Northeast  Level Estimated
10:40AM 26.9146 111.7937 43° Northeast  Level Estimated
10:41AM 26.9948 111.8785 43° Northeast  Level Estimated
10:42AM 27.0750 111.9635 43° Northeast  Level Estimated
10:43AM 27.1551 112.0486 43° Northeast  Level Estimated
10:44AM 27.2352 112.1338 43° Northeast  Level Estimated
10:45AM 27.3153 112.2191 43° Northeast  Level Estimated
10:46AM 27.3953 112.3046 43° Northeast  Level Estimated
10:47AM 27.4752 112.3901 44° Northeast  Level Estimated
10:48AM 27.5551 112.4758 44° Northeast  Level Estimated
10:49AM 27.6349 112.5617 44° Northeast  Level Estimated
10:50AM 27.7147 112.6476 44° Northeast  Level Estimated
10:51AM 27.7944 112.7337 44° Northeast  Level Estimated
10:52AM 27.8741 112.8199 44° Northeast  Level Estimated
10:53AM 27.9537 112.9062 44° Northeast  Level Estimated
10:54AM 28.0333 112.9926 44° Northeast  Level Estimated
10:55AM 28.1128 113.0792 44° Northeast  Level Estimated
10:56AM 28.1922 113.1659 44° Northeast  Level Estimated
10:57AM 28.2716 113.2528 44° Northeast  Level Estimated
10:58AM 28.3510 113.3397 44° Northeast  Level Estimated
10:59AM 28.4303 113.4268 44° Northeast  Level Estimated
11:00AM 28.5095 113.5141 44° Northeast  Level Estimated
11:01AM 28.5887 113.6014 44° Northeast  Level Estimated
11:02AM 28.6678 113.6889 44° Northeast  Level Estimated
11:03AM 28.7469 113.7765 44° Northeast  Level Estimated
11:04AM 28.8259 113.8643 44° Northeast  Level Estimated
11:05AM 28.9048 113.9522 44° Northeast  Level Estimated
11:06AM 28.9837 114.0402 44° Northeast  Level Estimated
11:07AM 29.0626 114.1283 44° Northeast  Level Estimated
11:08AM 29.1413 114.2166 44° Northeast  Level Estimated
11:09AM 29.2201 114.3051 44° Northeast  Level Estimated
11:10AM 29.2987 114.3936 44° Northeast  Level Estimated
11:11AM 29.3773 114.4823 45° Northeast  Level Estimated
11:12AM 29.4559 114.5712 45° Northeast  Level Estimated
11:13AM 29.5344 114.6601 45° Northeast  Level Estimated
11:14AM 29.6128 114.7493 45° Northeast  Level Estimated
11:15AM 29.6912 114.8385 45° Northeast  Level Estimated
11:16AM 29.7695 114.9279 45° Northeast  Level Estimated
11:17AM 29.8477 115.0174 45° Northeast  Level Estimated
11:18AM 29.9259 115.1071 45° Northeast  Level Estimated
11:19AM 30.0040 115.1969 45° Northeast  Level Estimated
11:20AM 30.0821 115.2868 45° Northeast  Level Estimated
11:21AM 30.1601 115.3769 45° Northeast  Level Estimated
11:22AM 30.2381 115.4672 45° Northeast  Level Estimated
11:23AM 30.3160 115.5576 45° Northeast  Level Estimated
11:24AM 30.3938 115.6481 45° Northeast  Level Estimated
11:25AM 30.4715 115.7387 45° Northeast  Level Estimated
11:26AM 30.5492 115.8296 45° Northeast  Level Estimated
11:27AM 30.6269 115.9205 45° Northeast  Level Estimated
11:28AM 30.7044 116.0116 45° Northeast  Level Estimated
11:29AM 30.7819 116.1029 45° Northeast  Level Estimated
11:30AM 30.8594 116.1943 45° Northeast  Level Estimated
11:31AM 30.9367 116.2858 45° Northeast  Level Estimated
11:32AM 31.0140 116.3775 45° Northeast  Level Estimated
11:33AM 31.0913 116.4694 46° Northeast  Level Estimated
11:34AM 31.1685 116.5613 46° Northeast  Level Estimated
11:35AM 31.2456 116.6535 46° Northeast  Level Estimated
11:36AM 31.3227 116.7458 46° Northeast  Level Estimated
11:37AM 31.3996 116.8382 46° Northeast  Level Estimated
11:38AM 31.4765 116.9308 46° Northeast  Level Estimated
11:39AM 31.5534 117.0236 46° Northeast  Level Estimated
11:40AM 31.6302 117.1165 46° Northeast  Level Estimated
11:41AM 31.7069 117.2095 46° Northeast  Level Estimated
11:42AM 31.7800 117.2984 46° Northeast  Level Estimated
11:43AM 31.7800 117.2984 254° West  Level Estimated
11:44AM 31.7800 117.2984 254° West  Level Estimated
11:45AM 31.7800 117.2984 254° West  Level Estimated
11:46AM 31.7800 117.2984 254° West  Level Estimated
11:47AM 31.7800 117.2984 254° West  Level Estimated
11:48AM 31.7800 117.2984 254° West  Level Estimated
11:49AM 31.7800 117.2984 254° West  Level Estimated
11:50AM 31.7800 117.2984 254° West  Level Estimated